createdAt,value
2023-02-28T00:01:10.307Z,6.05
2023-02-28T00:03:38.056Z,2.30
2023-02-28T00:06:07.216Z,1.90
2023-02-28T00:08:34.891Z,2.72
2023-02-28T00:11:04.578Z,2.90
2023-02-28T00:13:35.304Z,3.30
2023-02-28T00:16:04.372Z,2.35
2023-02-28T00:18:32.051Z,1.98
2023-02-28T00:21:00.159Z,1.60
2023-02-28T00:23:28.787Z,2.90
2023-02-28T00:25:56.974Z,5.20
2023-02-28T00:28:25.540Z,4.22
2023-02-28T00:30:54.651Z,4.38
2023-02-28T00:33:22.715Z,2.40
2023-02-28T00:35:50.615Z,3.08
2023-02-28T00:38:18.536Z,2.88
2023-02-28T00:40:46.340Z,6.85
2023-02-28T00:43:14.115Z,3.08
2023-02-28T00:45:43.543Z,2.35
2023-02-28T00:48:12.640Z,2.35
2023-02-28T00:50:40.488Z,4.05
2023-02-28T00:53:08.159Z,2.70
2023-02-28T00:55:35.901Z,3.28
2023-02-28T00:58:03.547Z,4.82
2023-02-28T01:00:31.271Z,5.85
2023-02-28T01:02:59.029Z,2.20
2023-02-28T01:05:29.112Z,3.10
2023-02-28T01:07:56.860Z,4.30
2023-02-28T01:10:24.815Z,5.53
2023-02-28T01:12:52.495Z,2.03
2023-02-28T01:15:20.252Z,3.60
2023-02-28T01:17:47.937Z,3.65
2023-02-28T01:20:15.841Z,1.70
2023-02-28T01:22:44.871Z,5.05
2023-02-28T01:25:12.580Z,3.83
2023-02-28T01:27:40.781Z,3.78
2023-02-28T01:30:09.958Z,2.03
2023-02-28T01:32:37.768Z,2.83
2023-02-28T01:35:05.901Z,3.58
2023-02-28T01:37:33.565Z,2.40
2023-02-28T01:40:02.606Z,3.42
2023-02-28T01:42:30.506Z,5.35
2023-02-28T01:45:03.637Z,3.50
2023-02-28T01:47:36.586Z,4.30
2023-02-28T01:50:09.244Z,3.17
2023-02-28T01:52:37.509Z,6.03
2023-02-28T01:55:08.744Z,3.38
2023-02-28T01:57:42.855Z,3.25
2023-02-28T02:00:15.241Z,4.13
2023-02-28T02:02:51.184Z,3.88
2023-02-28T02:05:21.507Z,3.33
2023-02-28T02:07:52.338Z,4.03
2023-02-28T02:10:24.427Z,4.25
2023-02-28T02:13:14.556Z,4.03
2023-02-28T02:15:46.856Z,4.70
2023-02-28T02:18:25.879Z,3.72
2023-02-28T02:21:18.014Z,3.85
2023-02-28T02:24:02.546Z,3.35
2023-02-28T02:26:48.813Z,4.60
2023-02-28T02:29:37.156Z,6.05
2023-02-28T02:32:20.516Z,3.55
2023-02-28T02:34:58.934Z,4.70
2023-02-28T02:37:35.622Z,5.95
2023-02-28T02:40:11.419Z,3.00
2023-02-28T02:42:46.029Z,4.90
2023-02-28T02:45:18.529Z,4.55
2023-02-28T02:47:47.681Z,5.63
2023-02-28T02:50:24.316Z,3.25
2023-02-28T02:52:56.290Z,4.55
2023-02-28T02:55:25.514Z,3.30
2023-02-28T02:57:55.826Z,3.10
2023-02-28T03:00:27.241Z,3.47
2023-02-28T03:02:57.567Z,6.85
2023-02-28T03:05:29.244Z,6.07
2023-02-28T03:07:56.975Z,4.75
2023-02-28T03:10:31.734Z,4.43
2023-02-28T03:13:13.285Z,3.63
2023-02-28T03:15:56.971Z,4.03
2023-02-28T03:18:30.807Z,6.28
2023-02-28T03:21:08.261Z,5.05
2023-02-28T03:23:46.983Z,4.82
2023-02-28T03:26:21.359Z,3.20
2023-02-28T03:28:56.065Z,13.02
2023-02-28T03:31:30.218Z,4.60
2023-02-28T03:34:03.285Z,5.22
2023-02-28T03:36:44.696Z,10.63
2023-02-28T03:39:19.296Z,4.43
2023-02-28T03:41:51.364Z,3.50
2023-02-28T03:44:23.912Z,6.93
2023-02-28T03:46:59.212Z,5.53
2023-02-28T03:49:30.593Z,5.43
2023-02-28T03:52:03.514Z,5.53
2023-02-28T03:54:34.945Z,5.30
2023-02-28T03:57:09.338Z,4.40
2023-02-28T03:59:41.844Z,4.65
2023-02-28T04:02:10.109Z,3.92
2023-02-28T04:04:38.101Z,7.13
2023-02-28T04:07:09.214Z,6.00
2023-02-28T04:09:36.992Z,6.20
2023-02-28T04:12:07.835Z,5.75
2023-02-28T04:14:35.616Z,5.40
2023-02-28T04:17:03.368Z,3.50
2023-02-28T04:19:31.061Z,6.65
2023-02-28T04:21:58.807Z,5.53
2023-02-28T04:24:29.235Z,7.00
2023-02-28T04:26:59.122Z,7.00
2023-02-28T04:29:29.545Z,7.75
2023-02-28T04:31:58.820Z,4.13
2023-02-28T04:34:27.305Z,4.85
2023-02-28T04:37:12.022Z,4.47
2023-02-28T04:39:43.048Z,8.70
2023-02-28T04:42:11.492Z,7.00
2023-02-28T04:44:39.194Z,6.30
2023-02-28T04:47:07.116Z,5.40
2023-02-28T04:49:34.757Z,20.35
2023-02-28T04:52:02.832Z,4.10
2023-02-28T04:54:30.776Z,4.03
2023-02-28T04:56:59.813Z,5.72
2023-02-28T04:59:27.643Z,6.47
2023-02-28T05:01:55.431Z,5.55
2023-02-28T05:04:23.229Z,7.90
2023-02-28T05:06:50.972Z,7.70
2023-02-28T05:09:18.725Z,8.20
2023-02-28T05:11:46.449Z,7.60
2023-02-28T05:14:16.174Z,6.78
2023-02-28T05:16:44.082Z,6.57
2023-02-28T05:19:12.039Z,5.55
2023-02-28T05:21:41.601Z,3.78
2023-02-28T05:24:12.311Z,6.90
2023-02-28T05:26:42.716Z,8.45
2023-02-28T05:29:11.160Z,6.57
2023-02-28T05:31:40.289Z,7.40
2023-02-28T05:34:08.119Z,6.22
2023-02-28T05:36:38.381Z,5.97
2023-02-28T05:39:08.284Z,9.13
2023-02-28T05:41:35.981Z,6.88
2023-02-28T05:44:03.689Z,8.13
2023-02-28T05:46:31.410Z,6.82
2023-02-28T05:49:01.741Z,8.00
2023-02-28T05:51:30.321Z,5.25
2023-02-28T05:54:01.475Z,6.75
2023-02-28T05:56:31.971Z,6.95
2023-02-28T05:58:59.899Z,7.20
2023-02-28T06:01:34.963Z,8.68
2023-02-28T06:04:22.327Z,5.90
2023-02-28T06:06:59.521Z,6.95
2023-02-28T06:09:27.358Z,4.63
2023-02-28T06:11:57.525Z,5.55
2023-02-28T06:14:25.250Z,6.43
2023-02-28T06:16:53.135Z,5.78
2023-02-28T06:19:23.258Z,6.82
2023-02-28T06:21:53.472Z,11.65
2023-02-28T06:24:22.049Z,5.97
2023-02-28T06:26:51.887Z,7.68
2023-02-28T06:29:19.770Z,9.40
2023-02-28T06:31:50.064Z,10.10
2023-02-28T06:34:21.668Z,7.20
2023-02-28T06:36:52.923Z,6.53
2023-02-28T06:39:20.817Z,5.78
2023-02-28T06:41:55.456Z,8.25
2023-02-28T06:44:24.545Z,6.07
2023-02-28T06:46:52.459Z,8.38
2023-02-28T06:49:21.601Z,9.20
2023-02-28T06:51:49.449Z,9.68
2023-02-28T06:54:17.130Z,7.43
2023-02-28T06:56:47.637Z,6.82
2023-02-28T06:59:15.603Z,11.40
2023-02-28T07:01:43.346Z,8.57
2023-02-28T07:04:11.421Z,6.63
2023-02-28T07:06:41.166Z,8.88
2023-02-28T07:09:10.294Z,8.57
2023-02-28T07:11:38.035Z,9.15
2023-02-28T07:14:05.759Z,7.15
2023-02-28T07:16:33.800Z,7.32
2023-02-28T07:19:01.489Z,10.07
2023-02-28T07:21:30.119Z,8.75
2023-02-28T07:23:59.976Z,8.20
2023-02-28T07:26:28.146Z,8.40
2023-02-28T07:28:55.852Z,6.90
2023-02-28T07:31:25.570Z,8.77
2023-02-28T07:33:54.388Z,9.07
2023-02-28T07:36:22.226Z,8.10
2023-02-28T07:38:51.445Z,6.82
2023-02-28T07:41:24.769Z,8.32
2023-02-28T07:43:55.688Z,9.43
2023-02-28T07:46:23.710Z,6.78
2023-02-28T07:48:51.571Z,6.90
2023-02-28T07:51:19.425Z,8.13
2023-02-28T07:53:47.194Z,6.85
2023-02-28T07:56:14.888Z,6.05
2023-02-28T07:58:44.047Z,9.07
2023-02-28T08:01:12.930Z,9.27
2023-02-28T08:03:41.373Z,7.05
2023-02-28T08:06:16.772Z,8.00
2023-02-28T08:08:45.314Z,9.07
2023-02-28T08:11:13.003Z,5.40
2023-02-28T08:13:40.816Z,10.93
2023-02-28T08:16:10.034Z,13.65
2023-02-28T08:18:38.274Z,12.82
2023-02-28T08:21:09.815Z,7.35
2023-02-28T08:23:37.866Z,7.90
2023-02-28T08:26:06.116Z,6.53
2023-02-28T08:28:34.562Z,6.22
2023-02-28T08:31:02.478Z,7.82
2023-02-28T08:33:32.360Z,7.50
2023-02-28T08:36:00.056Z,8.43
2023-02-28T08:38:30.506Z,6.50
2023-02-28T08:41:00.588Z,6.20
2023-02-28T08:43:28.558Z,8.63
2023-02-28T08:45:58.045Z,6.05
2023-02-28T08:48:26.196Z,6.60
2023-02-28T08:51:07.160Z,10.68
2023-02-28T08:53:36.795Z,7.22
2023-02-28T08:56:06.675Z,7.25
2023-02-28T08:58:35.139Z,7.15
2023-02-28T09:01:09.050Z,8.38
2023-02-28T09:03:36.815Z,5.40
2023-02-28T09:06:06.625Z,8.38
2023-02-28T09:08:35.521Z,6.85
2023-02-28T09:11:04.161Z,10.70
2023-02-28T09:13:34.245Z,6.88
2023-02-28T09:16:04.030Z,6.18
2023-02-28T09:18:40.270Z,8.35
2023-02-28T09:21:15.463Z,8.07
2023-02-28T09:23:45.931Z,11.05
2023-02-28T09:26:17.086Z,7.78
2023-02-28T09:28:46.271Z,7.57
2023-02-28T09:31:15.453Z,9.00
2023-02-28T09:33:43.618Z,5.95
2023-02-28T09:36:12.721Z,8.05
2023-02-28T09:38:44.544Z,7.75
2023-02-28T09:41:16.628Z,6.15
2023-02-28T09:43:48.689Z,9.10
2023-02-28T09:46:29.019Z,10.43
2023-02-28T09:49:01.146Z,10.60
2023-02-28T09:51:42.071Z,7.80
2023-02-28T09:54:19.803Z,8.43
2023-02-28T09:56:53.288Z,8.63
2023-02-28T09:59:34.390Z,7.72
2023-02-28T10:02:14.543Z,14.10
2023-02-28T10:04:52.318Z,12.10
2023-02-28T10:07:28.853Z,8.00
2023-02-28T10:09:59.843Z,8.88
2023-02-28T10:12:31.016Z,6.80
2023-02-28T10:15:03.192Z,13.00
2023-02-28T10:17:54.741Z,9.30
2023-02-28T10:20:31.641Z,9.75
2023-02-28T10:23:08.350Z,9.98
2023-02-28T10:25:38.316Z,10.18
2023-02-28T10:28:12.205Z,9.20
2023-02-28T10:30:44.090Z,9.43
2023-02-28T10:33:21.553Z,9.38
2023-02-28T10:35:49.492Z,10.65
2023-02-28T10:38:21.359Z,10.52
2023-02-28T10:40:49.464Z,14.05
2023-02-28T10:43:23.624Z,8.02
2023-02-28T10:45:58.461Z,9.90
2023-02-28T10:48:32.528Z,8.75
2023-02-28T10:51:00.655Z,12.80
2023-02-28T10:53:57.214Z,10.55
2023-02-28T10:56:26.597Z,9.90
2023-02-28T10:58:57.782Z,9.88
2023-02-28T11:01:35.734Z,8.27
2023-02-28T11:04:04.699Z,11.43
2023-02-28T11:06:34.316Z,10.57
2023-02-28T11:09:07.874Z,11.93
2023-02-28T11:11:47.256Z,8.73
2023-02-28T11:14:22.725Z,12.70
2023-02-28T11:16:51.486Z,10.45
2023-02-28T11:19:24.088Z,9.90
2023-02-28T11:21:56.937Z,7.97
2023-02-28T11:24:29.708Z,8.73
2023-02-28T11:26:58.329Z,8.20
2023-02-28T11:29:28.369Z,9.40
2023-02-28T11:32:17.667Z,10.57
2023-02-28T11:35:01.846Z,13.60
2023-02-28T11:37:30.948Z,10.07
2023-02-28T11:40:00.688Z,9.98
2023-02-28T11:42:52.545Z,12.13
2023-02-28T11:45:37.953Z,14.70
2023-02-28T11:48:16.067Z,13.10
2023-02-28T11:50:58.585Z,8.70
2023-02-28T11:53:46.300Z,14.88
2023-02-28T11:56:25.716Z,6.45
2023-02-28T11:59:09.901Z,12.00
2023-02-28T12:01:57.354Z,10.32
2023-02-28T12:04:36.271Z,9.75
2023-02-28T12:07:11.578Z,11.20
2023-02-28T12:09:48.621Z,9.75
2023-02-28T12:12:28.361Z,8.75
2023-02-28T12:15:14.761Z,13.68
2023-02-28T12:17:52.572Z,8.35
2023-02-28T12:20:30.135Z,8.35
2023-02-28T12:23:13.468Z,10.52
2023-02-28T12:26:00.074Z,12.20
2023-02-28T12:28:33.230Z,9.02
2023-02-28T12:31:05.303Z,9.20
2023-02-28T12:33:37.101Z,10.95
2023-02-28T12:36:12.724Z,14.30
2023-02-28T12:38:43.296Z,8.00
2023-02-28T12:41:16.244Z,10.85
2023-02-28T12:44:09.900Z,11.38
2023-02-28T12:46:47.173Z,10.52
2023-02-28T12:49:20.490Z,8.93
2023-02-28T12:51:55.484Z,11.48
2023-02-28T12:54:28.039Z,12.23
2023-02-28T12:57:08.492Z,8.75
2023-02-28T12:59:42.174Z,13.13
2023-02-28T13:02:35.575Z,10.95
2023-02-28T13:05:20.842Z,8.23
2023-02-28T13:08:06.556Z,9.18
2023-02-28T13:10:45.869Z,11.18
2023-02-28T13:13:19.729Z,12.73
2023-02-28T13:16:07.062Z,9.13
2023-02-28T13:18:41.545Z,12.10
2023-02-28T13:21:12.906Z,10.88
2023-02-28T13:23:58.930Z,9.07
2023-02-28T13:26:58.008Z,9.43
2023-02-28T13:29:35.899Z,15.77
2023-02-28T13:32:21.861Z,7.85
2023-02-28T13:35:21.805Z,10.23
2023-02-28T13:37:52.619Z,10.13
2023-02-28T13:40:38.138Z,11.25
2023-02-28T13:43:10.790Z,16.13
2023-02-28T13:45:42.891Z,10.60
2023-02-28T13:48:20.980Z,7.70
2023-02-28T13:50:49.027Z,8.18
2023-02-28T13:53:40.233Z,10.05
2023-02-28T13:56:23.592Z,10.18
2023-02-28T13:58:57.343Z,14.82
2023-02-28T14:01:41.507Z,12.50
2023-02-28T14:04:45.202Z,10.27
2023-02-28T14:07:21.856Z,14.32
2023-02-28T14:09:58.135Z,12.00
2023-02-28T14:12:59.807Z,10.35
2023-02-28T14:15:45.900Z,13.00
2023-02-28T14:18:33.047Z,13.30
2023-02-28T14:21:11.739Z,9.70
2023-02-28T14:24:04.246Z,8.48
2023-02-28T14:26:55.400Z,12.60
2023-02-28T14:29:40.039Z,14.98
2023-02-28T14:32:18.224Z,11.27
2023-02-28T14:34:54.801Z,10.57
2023-02-28T14:37:29.730Z,10.65
2023-02-28T14:39:59.510Z,14.57
2023-02-28T14:42:32.126Z,13.02
2023-02-28T14:44:59.904Z,11.55
2023-02-28T14:47:33.542Z,12.65
2023-02-28T14:50:05.321Z,11.90
2023-02-28T14:52:35.142Z,11.52
2023-02-28T14:55:07.927Z,12.40
2023-02-28T14:57:41.879Z,9.43
2023-02-28T15:00:16.977Z,11.70
2023-02-28T15:02:46.348Z,9.98
2023-02-28T15:05:27.303Z,11.10
2023-02-28T15:08:14.924Z,12.20
2023-02-28T15:10:45.744Z,8.45
2023-02-28T15:13:16.463Z,8.32
2023-02-28T15:16:03.950Z,10.93
2023-02-28T15:18:41.357Z,10.57
2023-02-28T15:21:17.767Z,13.60
2023-02-28T15:23:55.861Z,12.23
2023-02-28T15:26:27.553Z,13.00
2023-02-28T15:29:01.263Z,13.15
2023-02-28T15:31:50.161Z,11.38
2023-02-28T15:34:36.932Z,11.20
2023-02-28T15:37:24.216Z,11.95
2023-02-28T15:39:54.559Z,12.90
2023-02-28T15:42:24.834Z,9.43
2023-02-28T15:44:52.584Z,11.18
2023-02-28T15:47:23.204Z,13.25
2023-02-28T15:49:54.207Z,11.95
2023-02-28T15:52:25.429Z,11.43
2023-02-28T15:54:54.521Z,12.23
2023-02-28T15:57:24.131Z,10.73
2023-02-28T15:59:56.463Z,10.82
2023-02-28T16:02:34.404Z,15.18
2023-02-28T16:05:19.820Z,13.05
2023-02-28T16:07:50.245Z,11.60
2023-02-28T16:10:20.361Z,12.40
2023-02-28T16:12:49.974Z,26.55
2023-02-28T16:15:21.728Z,13.43
2023-02-28T16:17:51.568Z,12.95
2023-02-28T16:20:30.321Z,16.63
2023-02-28T16:23:08.449Z,10.65
2023-02-28T16:25:45.734Z,9.90
2023-02-28T16:28:21.239Z,11.20
2023-02-28T16:30:52.622Z,10.07
2023-02-28T16:33:21.867Z,10.18
2023-02-28T16:35:51.107Z,14.07
2023-02-28T16:38:18.830Z,13.63
2023-02-28T16:40:47.998Z,13.95
2023-02-28T16:43:19.931Z,12.63
2023-02-28T16:45:48.100Z,10.25
2023-02-28T16:48:17.941Z,12.77
2023-02-28T16:50:45.672Z,11.65
2023-02-28T16:53:14.410Z,16.92
2023-02-28T16:55:42.553Z,14.65
2023-02-28T16:58:16.601Z,14.88
2023-02-28T17:00:44.826Z,11.90
2023-02-28T17:03:32.705Z,13.95
2023-02-28T17:06:06.510Z,13.40
2023-02-28T17:08:36.737Z,14.07
2023-02-28T17:11:04.448Z,13.82
2023-02-28T17:13:35.315Z,12.57
2023-02-28T17:16:03.449Z,11.85
2023-02-28T17:18:34.613Z,12.25
2023-02-28T17:21:02.689Z,10.10
2023-02-28T17:23:30.420Z,10.52
2023-02-28T17:25:58.386Z,13.02
2023-02-28T17:28:26.210Z,20.40
2023-02-28T17:30:55.389Z,11.43
2023-02-28T17:33:24.495Z,11.82
2023-02-28T17:35:52.265Z,13.10
2023-02-28T17:38:24.850Z,13.73
2023-02-28T17:40:59.993Z,10.25
2023-02-28T17:43:29.486Z,13.52
2023-02-28T17:45:59.215Z,9.77
2023-02-28T17:48:27.744Z,13.15
2023-02-28T17:50:56.828Z,17.92
2023-02-28T17:53:24.560Z,16.85
2023-02-28T17:55:53.493Z,10.93
2023-02-28T17:58:22.872Z,12.40
2023-02-28T18:00:54.648Z,15.20
2023-02-28T18:03:25.070Z,19.17
2023-02-28T18:05:52.887Z,13.77
2023-02-28T18:08:20.617Z,17.35
2023-02-28T18:10:48.342Z,12.55
2023-02-28T18:13:16.069Z,14.57
2023-02-28T18:15:43.805Z,15.85
2023-02-28T18:18:11.690Z,20.92
2023-02-28T18:20:40.779Z,14.55
2023-02-28T18:23:08.476Z,12.18
2023-02-28T18:25:36.200Z,19.60
2023-02-28T18:28:05.028Z,18.25
2023-02-28T18:30:37.265Z,16.65
2023-02-28T18:33:05.602Z,14.70
2023-02-28T18:35:36.852Z,11.77
2023-02-28T18:38:09.731Z,14.57
2023-02-28T18:40:38.270Z,15.25
2023-02-28T18:43:06.397Z,15.75
2023-02-28T18:45:36.986Z,15.18
2023-02-28T18:48:04.820Z,18.42
2023-02-28T18:50:32.707Z,11.10
2023-02-28T18:53:01.580Z,15.63
2023-02-28T18:55:32.460Z,16.45
2023-02-28T18:58:00.316Z,16.98
2023-02-28T19:00:28.185Z,15.63
2023-02-28T19:02:55.954Z,19.65
2023-02-28T19:05:23.716Z,11.50
2023-02-28T19:07:51.554Z,11.57
2023-02-28T19:10:19.578Z,16.00
2023-02-28T19:12:48.646Z,13.10
2023-02-28T19:15:16.365Z,17.90
2023-02-28T19:17:46.037Z,13.80
2023-02-28T19:20:14.481Z,13.35
2023-02-28T19:22:43.931Z,18.05
2023-02-28T19:25:11.943Z,11.98
2023-02-28T19:27:39.710Z,14.95
2023-02-28T19:30:09.792Z,12.93
2023-02-28T19:32:42.586Z,15.05
2023-02-28T19:35:12.991Z,14.07
2023-02-28T19:37:43.876Z,16.15
2023-02-28T19:40:14.165Z,18.20
2023-02-28T19:42:44.220Z,15.77
2023-02-28T19:45:14.628Z,17.70
2023-02-28T19:47:42.853Z,15.23
2023-02-28T19:50:12.668Z,15.10
2023-02-28T19:55:16.743Z,14.10
2023-02-28T19:57:44.726Z,18.92
2023-02-28T20:00:17.760Z,14.48
2023-02-28T20:02:46.020Z,15.25
2023-02-28T20:05:13.751Z,11.98
2023-02-28T20:07:44.986Z,19.55
2023-02-28T20:10:14.931Z,10.80
2023-02-28T20:12:43.950Z,14.98
2023-02-28T20:15:11.881Z,13.63
2023-02-28T20:17:44.334Z,16.60
2023-02-28T20:20:12.723Z,15.88
2023-02-28T20:22:40.627Z,24.38
2023-02-28T20:25:10.914Z,19.83
2023-02-28T20:27:42.073Z,15.68
2023-02-28T20:30:10.871Z,14.55
2023-02-28T20:32:39.419Z,19.98
2023-02-28T20:35:11.394Z,14.68
2023-02-28T20:37:42.605Z,19.02
2023-02-28T20:40:11.286Z,14.30
2023-02-28T20:42:39.001Z,19.30
2023-02-28T20:45:07.495Z,13.55
2023-02-28T20:47:35.239Z,15.70
2023-02-28T20:50:03.285Z,13.50
2023-02-28T20:52:32.832Z,14.65
2023-02-28T20:55:00.642Z,17.05
2023-02-28T20:57:30.201Z,16.40
2023-02-28T20:59:57.895Z,15.80
2023-02-28T21:02:26.473Z,18.70
2023-02-28T21:04:54.213Z,17.02
2023-02-28T21:07:22.022Z,16.23
2023-02-28T21:09:51.008Z,20.58
2023-02-28T21:12:19.392Z,22.13
2023-02-28T21:14:48.590Z,18.30
2023-02-28T21:17:16.302Z,17.38
2023-02-28T21:19:44.035Z,19.45
2023-02-28T21:22:11.913Z,11.52
2023-02-28T21:24:39.739Z,15.43
2023-02-28T21:27:08.778Z,16.58
2023-02-28T21:29:36.513Z,14.05
2023-02-28T21:32:04.254Z,19.35
2023-02-28T21:34:33.040Z,15.63
2023-02-28T21:37:00.754Z,18.63
2023-02-28T21:39:29.859Z,17.55
2023-02-28T21:42:03.290Z,14.10
2023-02-28T21:44:34.399Z,18.95
2023-02-28T21:47:02.742Z,20.30
2023-02-28T21:49:30.696Z,14.55
2023-02-28T21:51:58.878Z,13.13
2023-02-28T21:54:27.003Z,15.07
2023-02-28T21:56:56.329Z,12.40
2023-02-28T21:59:24.242Z,13.73
2023-02-28T22:01:54.916Z,15.38
2023-02-28T22:04:22.835Z,16.88
2023-02-28T22:06:52.771Z,16.50
2023-02-28T22:09:20.784Z,14.13
2023-02-28T22:11:48.744Z,13.48
2023-02-28T22:14:16.715Z,12.93
2023-02-28T22:16:54.529Z,14.05
2023-02-28T22:19:24.679Z,15.57
2023-02-28T22:21:54.034Z,16.23
2023-02-28T22:24:24.183Z,13.98
2023-02-28T22:26:52.184Z,15.07
2023-02-28T22:29:20.930Z,15.40
2023-02-28T22:31:48.821Z,18.63
2023-02-28T22:34:16.949Z,14.63
2023-02-28T22:36:45.961Z,13.45
2023-02-28T22:39:14.032Z,14.70
2023-02-28T22:41:41.821Z,14.05
2023-02-28T22:44:09.627Z,16.88
2023-02-28T22:46:37.562Z,17.40
2023-02-28T22:49:06.956Z,14.40
2023-02-28T22:51:35.500Z,18.05
2023-02-28T22:54:04.725Z,16.98
2023-02-28T22:56:32.809Z,15.88
2023-02-28T22:59:01.860Z,16.83
2023-02-28T23:01:31.601Z,15.45
2023-02-28T23:03:59.771Z,11.80
2023-02-28T23:06:30.519Z,13.07
2023-02-28T23:09:00.906Z,15.05
2023-02-28T23:11:32.576Z,19.75
2023-02-28T23:14:00.568Z,12.85
2023-02-28T23:16:30.456Z,13.48
2023-02-28T23:19:04.745Z,18.35
2023-02-28T23:21:32.906Z,16.73
2023-02-28T23:24:03.042Z,13.88
2023-02-28T23:26:33.298Z,18.85
2023-02-28T23:29:01.444Z,16.38
2023-02-28T23:31:29.389Z,11.45
2023-02-28T23:33:57.235Z,17.45
2023-02-28T23:36:25.352Z,14.45
2023-02-28T23:38:53.821Z,13.10
2023-02-28T23:41:22.722Z,16.90
2023-02-28T23:43:53.003Z,17.27
2023-02-28T23:46:22.026Z,16.20
2023-02-28T23:48:49.743Z,15.48
2023-02-28T23:51:20.064Z,23.40
2023-02-28T23:53:49.540Z,10.82
2023-02-28T23:56:20.161Z,15.80
2023-02-28T23:58:48.573Z,14.82
